sensor_id;sensor_type;location;lat;lon;timestamp;P1;durP1;ratioP1;P2;durP2;ratioP2
46889;SDS011;32625;51.080;16.970;2022-11-13T00:02:21;57.85;;;37.72;;
46889;SDS011;32625;51.080;16.970;2022-11-13T00:05:06;53.60;;;35.88;;
46889;SDS011;32625;51.080;16.970;2022-11-13T00:07:52;58.28;;;38.20;;
46889;SDS011;32625;51.080;16.970;2022-11-13T00:10:38;55.72;;;36.40;;
46889;SDS011;32625;51.080;16.970;2022-11-13T00:13:23;53.65;;;35.97;;
46889;SDS011;32625;51.080;16.970;2022-11-13T00:16:15;56.30;;;35.33;;
46889;SDS011;32625;51.080;16.970;2022-11-13T00:19:03;54.47;;;34.08;;
46889;SDS011;32625;51.080;16.970;2022-11-13T00:21:49;53.97;;;33.25;;
46889;SDS011;32625;51.080;16.970;2022-11-13T00:24:35;57.15;;;35.17;;
46889;SDS011;32625;51.080;16.970;2022-11-13T00:27:20;51.63;;;34.13;;
46889;SDS011;32625;51.080;16.970;2022-11-13T00:30:06;49.15;;;33.40;;
46889;SDS011;32625;51.080;16.970;2022-11-13T00:32:52;48.00;;;34.25;;
46889;SDS011;32625;51.080;16.970;2022-11-13T00:35:38;50.13;;;33.70;;
46889;SDS011;32625;51.080;16.970;2022-11-13T00:38:24;53.65;;;34.80;;
46889;SDS011;32625;51.080;16.970;2022-11-13T00:41:11;51.33;;;35.03;;
46889;SDS011;32625;51.080;16.970;2022-11-13T00:43:57;54.47;;;36.28;;
46889;SDS011;32625;51.080;16.970;2022-11-13T00:46:42;44.45;;;31.67;;
46889;SDS011;32625;51.080;16.970;2022-11-13T00:49:29;52.70;;;35.55;;
46889;SDS011;32625;51.080;16.970;2022-11-13T00:52:14;51.47;;;33.42;;
46889;SDS011;32625;51.080;16.970;2022-11-13T00:55:00;54.08;;;33.92;;
46889;SDS011;32625;51.080;16.970;2022-11-13T00:57:46;48.63;;;32.97;;
46889;SDS011;32625;51.080;16.970;2022-11-13T01:00:32;53.97;;;34.35;;
46889;SDS011;32625;51.080;16.970;2022-11-13T01:03:17;52.33;;;34.10;;
46889;SDS011;32625;51.080;16.970;2022-11-13T01:06:11;52.28;;;35.83;;
46889;SDS011;32625;51.080;16.970;2022-11-13T01:09:05;53.42;;;34.83;;
46889;SDS011;32625;51.080;16.970;2022-11-13T01:11:51;49.13;;;34.35;;
46889;SDS011;32625;51.080;16.970;2022-11-13T01:14:36;54.95;;;35.55;;
46889;SDS011;32625;51.080;16.970;2022-11-13T01:17:22;49.55;;;33.05;;
46889;SDS011;32625;51.080;16.970;2022-11-13T01:20:08;57.38;;;35.47;;
46889;SDS011;32625;51.080;16.970;2022-11-13T01:22:54;50.95;;;34.85;;
46889;SDS011;32625;51.080;16.970;2022-11-13T01:25:40;51.42;;;33.95;;
46889;SDS011;32625;51.080;16.970;2022-11-13T01:28:25;50.17;;;32.30;;
46889;SDS011;32625;51.080;16.970;2022-11-13T01:31:16;48.30;;;33.05;;
46889;SDS011;32625;51.080;16.970;2022-11-13T01:34:03;48.13;;;31.00;;
46889;SDS011;32625;51.080;16.970;2022-11-13T01:36:48;44.47;;;30.88;;
46889;SDS011;32625;51.080;16.970;2022-11-13T01:39:34;50.03;;;31.00;;
46889;SDS011;32625;51.080;16.970;2022-11-13T01:42:19;48.25;;;32.17;;
46889;SDS011;32625;51.080;16.970;2022-11-13T01:48:32;43.10;;;28.77;;
46889;SDS011;32625;51.080;16.970;2022-11-13T01:51:31;43.35;;;28.50;;
46889;SDS011;32625;51.080;16.970;2022-11-13T01:54:19;44.65;;;29.83;;
46889;SDS011;32625;51.080;16.970;2022-11-13T01:57:07;39.88;;;25.92;;
46889;SDS011;32625;51.080;16.970;2022-11-13T01:59:56;40.17;;;28.02;;
46889;SDS011;32625;51.080;16.970;2022-11-13T02:02:44;39.80;;;26.25;;
46889;SDS011;32625;51.080;16.970;2022-11-13T02:05:30;40.47;;;25.55;;
46889;SDS011;32625;51.080;16.970;2022-11-13T02:08:16;38.65;;;25.63;;
46889;SDS011;32625;51.080;16.970;2022-11-13T02:11:02;42.88;;;26.50;;
46889;SDS011;32625;51.080;16.970;2022-11-13T02:13:47;41.67;;;26.00;;
46889;SDS011;32625;51.080;16.970;2022-11-13T02:16:33;37.33;;;23.75;;
46889;SDS011;32625;51.080;16.970;2022-11-13T02:19:26;31.17;;;21.23;;
46889;SDS011;32625;51.080;16.970;2022-11-13T02:22:17;34.95;;;21.98;;
46889;SDS011;32625;51.080;16.970;2022-11-13T02:25:04;34.08;;;21.90;;
46889;SDS011;32625;51.080;16.970;2022-11-13T02:27:52;36.72;;;22.27;;
46889;SDS011;32625;51.080;16.970;2022-11-13T02:30:38;35.28;;;22.23;;
46889;SDS011;32625;51.080;16.970;2022-11-13T02:33:24;38.03;;;23.17;;
46889;SDS011;32625;51.080;16.970;2022-11-13T02:36:12;32.10;;;22.48;;
46889;SDS011;32625;51.080;16.970;2022-11-13T02:38:59;32.92;;;20.92;;
46889;SDS011;32625;51.080;16.970;2022-11-13T02:41:51;42.20;;;24.75;;
46889;SDS011;32625;51.080;16.970;2022-11-13T02:44:37;39.10;;;24.13;;
46889;SDS011;32625;51.080;16.970;2022-11-13T02:47:23;29.55;;;21.30;;
46889;SDS011;32625;51.080;16.970;2022-11-13T02:50:09;36.20;;;23.77;;
46889;SDS011;32625;51.080;16.970;2022-11-13T02:52:55;39.63;;;23.92;;
46889;SDS011;32625;51.080;16.970;2022-11-13T02:55:41;36.33;;;24.08;;
46889;SDS011;32625;51.080;16.970;2022-11-13T02:58:27;30.92;;;21.25;;
46889;SDS011;32625;51.080;16.970;2022-11-13T03:01:13;33.22;;;22.30;;
46889;SDS011;32625;51.080;16.970;2022-11-13T03:03:59;35.38;;;23.88;;
46889;SDS011;32625;51.080;16.970;2022-11-13T03:06:45;34.40;;;21.60;;
46889;SDS011;32625;51.080;16.970;2022-11-13T03:09:31;35.08;;;22.80;;
46889;SDS011;32625;51.080;16.970;2022-11-13T03:12:16;35.25;;;22.45;;
46889;SDS011;32625;51.080;16.970;2022-11-13T03:15:03;33.78;;;23.13;;
46889;SDS011;32625;51.080;16.970;2022-11-13T03:17:49;32.60;;;22.10;;
46889;SDS011;32625;51.080;16.970;2022-11-13T03:20:35;31.77;;;21.65;;
46889;SDS011;32625;51.080;16.970;2022-11-13T03:23:22;34.13;;;23.10;;
46889;SDS011;32625;51.080;16.970;2022-11-13T03:26:09;35.55;;;23.33;;
46889;SDS011;32625;51.080;16.970;2022-11-13T03:28:55;32.90;;;21.63;;
46889;SDS011;32625;51.080;16.970;2022-11-13T03:31:41;32.83;;;23.00;;
46889;SDS011;32625;51.080;16.970;2022-11-13T03:34:26;34.45;;;23.33;;
46889;SDS011;32625;51.080;16.970;2022-11-13T03:37:12;35.10;;;22.75;;
46889;SDS011;32625;51.080;16.970;2022-11-13T03:39:58;36.67;;;23.20;;
46889;SDS011;32625;51.080;16.970;2022-11-13T03:42:44;35.25;;;22.73;;
46889;SDS011;32625;51.080;16.970;2022-11-13T03:45:30;34.03;;;21.95;;
46889;SDS011;32625;51.080;16.970;2022-11-13T03:48:16;30.23;;;20.83;;
46889;SDS011;32625;51.080;16.970;2022-11-13T03:51:02;34.25;;;22.20;;
46889;SDS011;32625;51.080;16.970;2022-11-13T03:53:48;29.17;;;21.77;;
46889;SDS011;32625;51.080;16.970;2022-11-13T03:56:33;35.00;;;23.27;;
46889;SDS011;32625;51.080;16.970;2022-11-13T03:59:19;35.13;;;23.83;;
46889;SDS011;32625;51.080;16.970;2022-11-13T04:02:04;30.58;;;22.35;;
46889;SDS011;32625;51.080;16.970;2022-11-13T04:04:50;35.58;;;22.70;;
46889;SDS011;32625;51.080;16.970;2022-11-13T04:07:35;32.53;;;21.73;;
46889;SDS011;32625;51.080;16.970;2022-11-13T04:10:21;33.50;;;22.85;;
46889;SDS011;32625;51.080;16.970;2022-11-13T04:13:07;39.33;;;23.17;;
46889;SDS011;32625;51.080;16.970;2022-11-13T04:15:53;30.83;;;23.15;;
46889;SDS011;32625;51.080;16.970;2022-11-13T04:18:39;36.20;;;25.05;;
46889;SDS011;32625;51.080;16.970;2022-11-13T04:21:24;38.28;;;24.73;;
46889;SDS011;32625;51.080;16.970;2022-11-13T04:24:11;32.40;;;24.13;;
46889;SDS011;32625;51.080;16.970;2022-11-13T04:26:57;34.47;;;22.92;;
46889;SDS011;32625;51.080;16.970;2022-11-13T04:29:43;30.55;;;21.20;;
46889;SDS011;32625;51.080;16.970;2022-11-13T04:32:28;29.65;;;22.05;;
46889;SDS011;32625;51.080;16.970;2022-11-13T04:35:15;34.20;;;23.70;;
46889;SDS011;32625;51.080;16.970;2022-11-13T04:38:01;37.25;;;24.55;;
46889;SDS011;32625;51.080;16.970;2022-11-13T04:40:50;39.78;;;25.92;;
46889;SDS011;32625;51.080;16.970;2022-11-13T04:43:56;35.58;;;25.63;;
46889;SDS011;32625;51.080;16.970;2022-11-13T04:46:41;32.20;;;23.80;;
46889;SDS011;32625;51.080;16.970;2022-11-13T04:49:27;39.05;;;25.95;;
46889;SDS011;32625;51.080;16.970;2022-11-13T04:52:13;37.08;;;25.02;;
46889;SDS011;32625;51.080;16.970;2022-11-13T04:54:59;45.75;;;28.15;;
46889;SDS011;32625;51.080;16.970;2022-11-13T04:57:44;37.85;;;25.23;;
46889;SDS011;32625;51.080;16.970;2022-11-13T05:00:30;39.75;;;26.88;;
46889;SDS011;32625;51.080;16.970;2022-11-13T05:03:17;40.78;;;24.88;;
46889;SDS011;32625;51.080;16.970;2022-11-13T05:06:07;40.67;;;28.10;;
46889;SDS011;32625;51.080;16.970;2022-11-13T05:08:53;37.75;;;26.23;;
46889;SDS011;32625;51.080;16.970;2022-11-13T05:11:39;37.22;;;25.73;;
46889;SDS011;32625;51.080;16.970;2022-11-13T05:14:25;37.13;;;25.80;;
46889;SDS011;32625;51.080;16.970;2022-11-13T05:17:11;40.83;;;27.23;;
46889;SDS011;32625;51.080;16.970;2022-11-13T05:19:57;38.47;;;27.23;;
46889;SDS011;32625;51.080;16.970;2022-11-13T05:22:43;40.28;;;25.83;;
46889;SDS011;32625;51.080;16.970;2022-11-13T05:25:29;42.50;;;28.17;;
46889;SDS011;32625;51.080;16.970;2022-11-13T05:28:15;39.65;;;26.13;;
46889;SDS011;32625;51.080;16.970;2022-11-13T05:31:05;37.53;;;27.10;;
46889;SDS011;32625;51.080;16.970;2022-11-13T05:36:49;35.67;;;25.70;;
46889;SDS011;32625;51.080;16.970;2022-11-13T05:39:35;41.80;;;27.20;;
46889;SDS011;32625;51.080;16.970;2022-11-13T05:42:21;40.72;;;26.67;;
46889;SDS011;32625;51.080;16.970;2022-11-13T05:45:06;47.45;;;28.80;;
46889;SDS011;32625;51.080;16.970;2022-11-13T05:47:53;38.90;;;27.30;;
46889;SDS011;32625;51.080;16.970;2022-11-13T05:50:38;40.83;;;28.30;;
46889;SDS011;32625;51.080;16.970;2022-11-13T05:53:24;47.85;;;29.27;;
46889;SDS011;32625;51.080;16.970;2022-11-13T05:56:16;42.50;;;29.45;;
46889;SDS011;32625;51.080;16.970;2022-11-13T05:59:06;42.42;;;27.92;;
46889;SDS011;32625;51.080;16.970;2022-11-13T06:01:52;58.00;;;34.30;;
46889;SDS011;32625;51.080;16.970;2022-11-13T06:04:38;49.42;;;32.45;;
46889;SDS011;32625;51.080;16.970;2022-11-13T06:07:23;49.97;;;31.60;;
46889;SDS011;32625;51.080;16.970;2022-11-13T06:10:09;47.30;;;29.95;;
46889;SDS011;32625;51.080;16.970;2022-11-13T06:12:54;49.47;;;32.83;;
46889;SDS011;32625;51.080;16.970;2022-11-13T06:15:40;51.53;;;33.13;;
46889;SDS011;32625;51.080;16.970;2022-11-13T06:18:26;46.67;;;31.95;;
46889;SDS011;32625;51.080;16.970;2022-11-13T06:21:14;46.58;;;32.15;;
46889;SDS011;32625;51.080;16.970;2022-11-13T06:24:05;50.28;;;32.72;;
46889;SDS011;32625;51.080;16.970;2022-11-13T06:26:51;53.67;;;34.92;;
46889;SDS011;32625;51.080;16.970;2022-11-13T06:29:37;47.70;;;34.10;;
46889;SDS011;32625;51.080;16.970;2022-11-13T06:32:23;52.30;;;35.05;;
46889;SDS011;32625;51.080;16.970;2022-11-13T06:35:09;49.42;;;31.55;;
46889;SDS011;32625;51.080;16.970;2022-11-13T06:37:54;51.72;;;33.65;;
46889;SDS011;32625;51.080;16.970;2022-11-13T06:40:40;47.78;;;31.33;;
46889;SDS011;32625;51.080;16.970;2022-11-13T06:43:26;59.45;;;37.53;;
46889;SDS011;32625;51.080;16.970;2022-11-13T06:46:13;55.85;;;35.13;;
46889;SDS011;32625;51.080;16.970;2022-11-13T06:49:01;54.53;;;37.05;;
46889;SDS011;32625;51.080;16.970;2022-11-13T06:51:47;55.30;;;35.15;;
46889;SDS011;32625;51.080;16.970;2022-11-13T06:54:32;52.08;;;35.65;;
46889;SDS011;32625;51.080;16.970;2022-11-13T06:57:18;49.60;;;34.95;;
46889;SDS011;32625;51.080;16.970;2022-11-13T07:00:03;57.90;;;36.40;;
46889;SDS011;32625;51.080;16.970;2022-11-13T07:02:49;52.00;;;37.08;;
46889;SDS011;32625;51.080;16.970;2022-11-13T07:05:35;49.42;;;32.97;;
46889;SDS011;32625;51.080;16.970;2022-11-13T07:08:21;50.58;;;35.42;;
46889;SDS011;32625;51.080;16.970;2022-11-13T07:11:08;54.47;;;36.28;;
46889;SDS011;32625;51.080;16.970;2022-11-13T07:13:57;54.15;;;33.72;;
46889;SDS011;32625;51.080;16.970;2022-11-13T07:16:42;50.83;;;35.72;;
46889;SDS011;32625;51.080;16.970;2022-11-13T07:19:49;47.95;;;34.33;;
46889;SDS011;32625;51.080;16.970;2022-11-13T07:22:35;48.20;;;33.85;;
46889;SDS011;32625;51.080;16.970;2022-11-13T07:25:21;57.55;;;36.95;;
46889;SDS011;32625;51.080;16.970;2022-11-13T07:28:07;53.80;;;36.45;;
46889;SDS011;32625;51.080;16.970;2022-11-13T07:30:55;58.30;;;37.38;;
46889;SDS011;32625;51.080;16.970;2022-11-13T07:33:43;52.22;;;36.67;;
46889;SDS011;32625;51.080;16.970;2022-11-13T07:36:31;51.85;;;33.95;;
46889;SDS011;32625;51.080;16.970;2022-11-13T07:39:18;54.10;;;35.83;;
46889;SDS011;32625;51.080;16.970;2022-11-13T07:42:04;53.00;;;34.90;;
46889;SDS011;32625;51.080;16.970;2022-11-13T07:44:50;58.30;;;36.42;;
46889;SDS011;32625;51.080;16.970;2022-11-13T07:47:40;52.22;;;35.42;;
46889;SDS011;32625;51.080;16.970;2022-11-13T07:50:30;54.50;;;35.92;;
46889;SDS011;32625;51.080;16.970;2022-11-13T07:53:18;54.50;;;35.92;;
46889;SDS011;32625;51.080;16.970;2022-11-13T07:56:05;51.70;;;34.97;;
46889;SDS011;32625;51.080;16.970;2022-11-13T07:58:51;60.00;;;37.50;;
46889;SDS011;32625;51.080;16.970;2022-11-13T08:01:37;57.40;;;38.33;;
46889;SDS011;32625;51.080;16.970;2022-11-13T08:04:23;58.60;;;37.88;;
46889;SDS011;32625;51.080;16.970;2022-11-13T08:07:12;58.42;;;36.67;;
46889;SDS011;32625;51.080;16.970;2022-11-13T08:09:58;56.70;;;34.95;;
46889;SDS011;32625;51.080;16.970;2022-11-13T08:12:44;59.13;;;37.95;;
46889;SDS011;32625;51.080;16.970;2022-11-13T08:15:31;54.42;;;36.38;;
46889;SDS011;32625;51.080;16.970;2022-11-13T08:18:18;58.28;;;36.63;;
46889;SDS011;32625;51.080;16.970;2022-11-13T08:21:04;55.45;;;34.47;;
46889;SDS011;32625;51.080;16.970;2022-11-13T08:23:58;63.97;;;37.33;;
46889;SDS011;32625;51.080;16.970;2022-11-13T08:26:44;57.13;;;36.00;;
46889;SDS011;32625;51.080;16.970;2022-11-13T08:29:31;57.00;;;35.75;;
46889;SDS011;32625;51.080;16.970;2022-11-13T08:32:17;57.55;;;35.97;;
46889;SDS011;32625;51.080;16.970;2022-11-13T08:35:04;53.38;;;33.10;;
46889;SDS011;32625;51.080;16.970;2022-11-13T08:37:50;61.17;;;36.92;;
46889;SDS011;32625;51.080;16.970;2022-11-13T08:40:37;62.33;;;36.85;;
46889;SDS011;32625;51.080;16.970;2022-11-13T08:43:23;59.60;;;38.90;;
46889;SDS011;32625;51.080;16.970;2022-11-13T08:46:09;61.92;;;38.85;;
46889;SDS011;32625;51.080;16.970;2022-11-13T08:48:55;61.08;;;36.85;;
46889;SDS011;32625;51.080;16.970;2022-11-13T08:51:41;59.90;;;38.40;;
46889;SDS011;32625;51.080;16.970;2022-11-13T08:54:27;60.53;;;39.55;;
46889;SDS011;32625;51.080;16.970;2022-11-13T08:57:14;56.38;;;36.63;;
46889;SDS011;32625;51.080;16.970;2022-11-13T09:00:01;57.78;;;35.75;;
46889;SDS011;32625;51.080;16.970;2022-11-13T09:02:54;65.68;;;39.75;;
46889;SDS011;32625;51.080;16.970;2022-11-13T09:05:41;55.83;;;36.95;;
46889;SDS011;32625;51.080;16.970;2022-11-13T09:08:28;55.67;;;36.67;;
46889;SDS011;32625;51.080;16.970;2022-11-13T09:11:16;55.08;;;35.67;;
46889;SDS011;32625;51.080;16.970;2022-11-13T09:14:01;58.70;;;38.33;;
46889;SDS011;32625;51.080;16.970;2022-11-13T09:16:48;56.05;;;37.30;;
46889;SDS011;32625;51.080;16.970;2022-11-13T09:19:34;54.97;;;37.92;;
46889;SDS011;32625;51.080;16.970;2022-11-13T09:22:20;59.90;;;39.20;;
46889;SDS011;32625;51.080;16.970;2022-11-13T09:25:06;55.33;;;35.05;;
46889;SDS011;32625;51.080;16.970;2022-11-13T09:27:53;58.05;;;36.47;;
46889;SDS011;32625;51.080;16.970;2022-11-13T09:30:40;57.97;;;38.08;;
46889;SDS011;32625;51.080;16.970;2022-11-13T09:33:27;60.35;;;39.75;;
46889;SDS011;32625;51.080;16.970;2022-11-13T09:36:13;61.95;;;39.13;;
46889;SDS011;32625;51.080;16.970;2022-11-13T09:39:00;70.07;;;45.00;;
46889;SDS011;32625;51.080;16.970;2022-11-13T09:44:35;75.22;;;48.72;;
46889;SDS011;32625;51.080;16.970;2022-11-13T09:47:29;80.05;;;51.88;;
46889;SDS011;32625;51.080;16.970;2022-11-13T09:50:24;80.15;;;50.70;;
46889;SDS011;32625;51.080;16.970;2022-11-13T09:53:12;76.07;;;50.50;;
46889;SDS011;32625;51.080;16.970;2022-11-13T09:56:04;68.40;;;45.42;;
46889;SDS011;32625;51.080;16.970;2022-11-13T09:59:15;84.43;;;52.90;;
46889;SDS011;32625;51.080;16.970;2022-11-13T10:08:13;86.20;;;50.97;;
46889;SDS011;32625;51.080;16.970;2022-11-13T10:14:31;67.70;;;41.95;;
46889;SDS011;32625;51.080;16.970;2022-11-13T10:17:23;67.85;;;39.53;;
46889;SDS011;32625;51.080;16.970;2022-11-13T10:20:32;66.78;;;41.40;;
46889;SDS011;32625;51.080;16.970;2022-11-13T10:23:20;66.43;;;39.38;;
46889;SDS011;32625;51.080;16.970;2022-11-13T10:26:13;67.70;;;39.47;;
46889;SDS011;32625;51.080;16.970;2022-11-13T10:29:15;68.25;;;40.30;;
46889;SDS011;32625;51.080;16.970;2022-11-13T10:32:17;74.40;;;43.47;;
46889;SDS011;32625;51.080;16.970;2022-11-13T10:41:30;79.97;;;43.35;;
46889;SDS011;32625;51.080;16.970;2022-11-13T10:44:33;76.97;;;43.28;;
46889;SDS011;32625;51.080;16.970;2022-11-13T10:47:21;69.93;;;41.13;;
46889;SDS011;32625;51.080;16.970;2022-11-13T10:50:29;72.43;;;38.95;;
46889;SDS011;32625;51.080;16.970;2022-11-13T10:53:16;65.22;;;37.72;;
46889;SDS011;32625;51.080;16.970;2022-11-13T10:56:10;69.80;;;37.47;;
46889;SDS011;32625;51.080;16.970;2022-11-13T10:59:01;73.00;;;42.13;;
46889;SDS011;32625;51.080;16.970;2022-11-13T11:01:47;69.30;;;40.20;;
46889;SDS011;32625;51.080;16.970;2022-11-13T11:04:34;73.20;;;42.20;;
46889;SDS011;32625;51.080;16.970;2022-11-13T11:07:20;73.25;;;40.50;;
46889;SDS011;32625;51.080;16.970;2022-11-13T11:10:18;75.90;;;42.22;;
46889;SDS011;32625;51.080;16.970;2022-11-13T11:13:10;75.00;;;42.85;;
46889;SDS011;32625;51.080;16.970;2022-11-13T11:16:05;74.50;;;41.85;;
46889;SDS011;32625;51.080;16.970;2022-11-13T11:18:54;81.03;;;43.45;;
46889;SDS011;32625;51.080;16.970;2022-11-13T11:21:44;72.35;;;43.30;;
46889;SDS011;32625;51.080;16.970;2022-11-13T11:24:32;70.55;;;41.90;;
46889;SDS011;32625;51.080;16.970;2022-11-13T11:27:36;79.53;;;44.65;;
46889;SDS011;32625;51.080;16.970;2022-11-13T11:30:30;78.60;;;44.85;;
46889;SDS011;32625;51.080;16.970;2022-11-13T11:33:35;80.45;;;44.28;;
46889;SDS011;32625;51.080;16.970;2022-11-13T11:39:45;75.10;;;42.55;;
46889;SDS011;32625;51.080;16.970;2022-11-13T11:45:31;77.15;;;42.90;;
46889;SDS011;32625;51.080;16.970;2022-11-13T11:48:25;81.50;;;44.58;;
46889;SDS011;32625;51.080;16.970;2022-11-13T11:56:58;81.95;;;46.00;;
46889;SDS011;32625;51.080;16.970;2022-11-13T12:00:12;80.32;;;44.47;;
46889;SDS011;32625;51.080;16.970;2022-11-13T12:03:14;74.28;;;44.03;;
46889;SDS011;32625;51.080;16.970;2022-11-13T12:09:26;76.68;;;43.08;;
46889;SDS011;32625;51.080;16.970;2022-11-13T12:21:57;94.20;;;49.90;;
46889;SDS011;32625;51.080;16.970;2022-11-13T12:27:42;82.47;;;46.15;;
46889;SDS011;32625;51.080;16.970;2022-11-13T12:30:41;87.50;;;47.80;;
46889;SDS011;32625;51.080;16.970;2022-11-13T12:36:45;98.00;;;49.00;;
46889;SDS011;32625;51.080;16.970;2022-11-13T12:42:37;94.47;;;47.88;;
46889;SDS011;32625;51.080;16.970;2022-11-13T12:46:07;99.22;;;50.10;;
46889;SDS011;32625;51.080;16.970;2022-11-13T12:48:55;99.00;;;50.38;;
46889;SDS011;32625;51.080;16.970;2022-11-13T12:51:51;97.18;;;48.50;;
46889;SDS011;32625;51.080;16.970;2022-11-13T12:54:42;106.28;;;51.13;;
46889;SDS011;32625;51.080;16.970;2022-11-13T12:57:28;109.22;;;51.72;;
46889;SDS011;32625;51.080;16.970;2022-11-13T13:00:20;108.97;;;55.05;;
46889;SDS011;32625;51.080;16.970;2022-11-13T13:15:55;105.55;;;53.97;;
46889;SDS011;32625;51.080;16.970;2022-11-13T13:18:48;113.35;;;53.40;;
46889;SDS011;32625;51.080;16.970;2022-11-13T13:21:41;110.72;;;56.65;;
46889;SDS011;32625;51.080;16.970;2022-11-13T13:27:24;124.25;;;60.85;;
46889;SDS011;32625;51.080;16.970;2022-11-13T13:30:17;118.38;;;55.83;;
46889;SDS011;32625;51.080;16.970;2022-11-13T13:33:18;121.22;;;57.53;;
46889;SDS011;32625;51.080;16.970;2022-11-13T13:36:11;112.70;;;54.22;;
46889;SDS011;32625;51.080;16.970;2022-11-13T13:48:31;112.88;;;57.08;;
46889;SDS011;32625;51.080;16.970;2022-11-13T13:54:18;109.97;;;57.45;;
46889;SDS011;32625;51.080;16.970;2022-11-13T13:57:11;112.43;;;59.45;;
46889;SDS011;32625;51.080;16.970;2022-11-13T14:00:00;127.20;;;63.70;;
46889;SDS011;32625;51.080;16.970;2022-11-13T14:02:47;116.75;;;60.05;;
46889;SDS011;32625;51.080;16.970;2022-11-13T14:05:36;119.72;;;60.50;;
46889;SDS011;32625;51.080;16.970;2022-11-13T14:08:23;116.15;;;59.55;;
46889;SDS011;32625;51.080;16.970;2022-11-13T14:11:18;97.20;;;53.80;;
46889;SDS011;32625;51.080;16.970;2022-11-13T14:14:18;114.50;;;57.20;;
46889;SDS011;32625;51.080;16.970;2022-11-13T14:17:07;105.20;;;52.83;;
46889;SDS011;32625;51.080;16.970;2022-11-13T14:19:55;117.68;;;57.03;;
46889;SDS011;32625;51.080;16.970;2022-11-13T14:22:46;100.03;;;50.70;;
46889;SDS011;32625;51.080;16.970;2022-11-13T14:25:40;105.00;;;55.53;;
46889;SDS011;32625;51.080;16.970;2022-11-13T14:28:29;93.25;;;51.30;;
46889;SDS011;32625;51.080;16.970;2022-11-13T14:31:26;100.95;;;53.40;;
46889;SDS011;32625;51.080;16.970;2022-11-13T14:34:17;108.13;;;54.08;;
46889;SDS011;32625;51.080;16.970;2022-11-13T14:37:09;107.65;;;51.17;;
46889;SDS011;32625;51.080;16.970;2022-11-13T14:42:57;103.97;;;52.65;;
46889;SDS011;32625;51.080;16.970;2022-11-13T14:45:55;105.82;;;54.35;;
46889;SDS011;32625;51.080;16.970;2022-11-13T14:48:50;100.18;;;51.10;;
46889;SDS011;32625;51.080;16.970;2022-11-13T14:54:31;101.22;;;51.47;;
46889;SDS011;32625;51.080;16.970;2022-11-13T14:57:49;99.03;;;52.58;;
46889;SDS011;32625;51.080;16.970;2022-11-13T15:00:36;102.05;;;53.85;;
46889;SDS011;32625;51.080;16.970;2022-11-13T15:03:22;105.00;;;54.75;;
46889;SDS011;32625;51.080;16.970;2022-11-13T15:06:18;112.40;;;55.50;;
46889;SDS011;32625;51.080;16.970;2022-11-13T15:09:10;106.72;;;55.95;;
46889;SDS011;32625;51.080;16.970;2022-11-13T15:11:59;105.07;;;55.78;;
46889;SDS011;32625;51.080;16.970;2022-11-13T15:14:45;97.15;;;51.30;;
46889;SDS011;32625;51.080;16.970;2022-11-13T15:17:31;126.15;;;59.45;;
46889;SDS011;32625;51.080;16.970;2022-11-13T15:23:07;107.68;;;57.50;;
46889;SDS011;32625;51.080;16.970;2022-11-13T15:25:55;102.35;;;56.38;;
46889;SDS011;32625;51.080;16.970;2022-11-13T15:28:41;119.45;;;60.28;;
46889;SDS011;32625;51.080;16.970;2022-11-13T15:31:29;113.68;;;57.78;;
46889;SDS011;32625;51.080;16.970;2022-11-13T15:34:17;117.05;;;58.47;;
46889;SDS011;32625;51.080;16.970;2022-11-13T15:37:10;104.55;;;55.05;;
46889;SDS011;32625;51.080;16.970;2022-11-13T15:39:57;109.30;;;55.80;;
46889;SDS011;32625;51.080;16.970;2022-11-13T15:42:43;102.95;;;54.47;;
46889;SDS011;32625;51.080;16.970;2022-11-13T15:45:29;114.72;;;58.75;;
46889;SDS011;32625;51.080;16.970;2022-11-13T15:48:15;107.10;;;55.40;;
46889;SDS011;32625;51.080;16.970;2022-11-13T15:51:01;118.68;;;59.47;;
46889;SDS011;32625;51.080;16.970;2022-11-13T15:54:12;121.95;;;58.33;;
46889;SDS011;32625;51.080;16.970;2022-11-13T15:57:25;113.53;;;59.38;;
46889;SDS011;32625;51.080;16.970;2022-11-13T16:00:16;112.82;;;58.63;;
46889;SDS011;32625;51.080;16.970;2022-11-13T16:03:09;114.53;;;60.83;;
46889;SDS011;32625;51.080;16.970;2022-11-13T16:05:57;124.07;;;61.63;;
46889;SDS011;32625;51.080;16.970;2022-11-13T16:08:44;110.63;;;57.55;;
46889;SDS011;32625;51.080;16.970;2022-11-13T16:11:31;105.97;;;55.85;;
46889;SDS011;32625;51.080;16.970;2022-11-13T16:14:18;107.10;;;55.05;;
46889;SDS011;32625;51.080;16.970;2022-11-13T16:17:12;108.35;;;57.28;;
46889;SDS011;32625;51.080;16.970;2022-11-13T16:20:04;108.97;;;56.67;;
46889;SDS011;32625;51.080;16.970;2022-11-13T16:22:51;117.47;;;58.88;;
46889;SDS011;32625;51.080;16.970;2022-11-13T16:25:38;137.52;;;63.67;;
46889;SDS011;32625;51.080;16.970;2022-11-13T16:28:24;109.63;;;58.00;;
46889;SDS011;32625;51.080;16.970;2022-11-13T16:31:09;113.50;;;60.30;;
46889;SDS011;32625;51.080;16.970;2022-11-13T16:33:55;108.45;;;57.47;;
46889;SDS011;32625;51.080;16.970;2022-11-13T16:36:41;105.65;;;55.30;;
46889;SDS011;32625;51.080;16.970;2022-11-13T16:39:27;115.93;;;57.67;;
46889;SDS011;32625;51.080;16.970;2022-11-13T16:42:13;112.28;;;58.42;;
46889;SDS011;32625;51.080;16.970;2022-11-13T16:45:00;112.18;;;59.75;;
46889;SDS011;32625;51.080;16.970;2022-11-13T16:47:46;118.32;;;62.83;;
46889;SDS011;32625;51.080;16.970;2022-11-13T16:50:32;127.20;;;67.00;;
46889;SDS011;32625;51.080;16.970;2022-11-13T16:53:18;128.75;;;64.55;;
46889;SDS011;32625;51.080;16.970;2022-11-13T16:56:09;117.40;;;62.75;;
46889;SDS011;32625;51.080;16.970;2022-11-13T17:07:16;111.57;;;59.15;;
46889;SDS011;32625;51.080;16.970;2022-11-13T17:10:02;119.00;;;62.97;;
46889;SDS011;32625;51.080;16.970;2022-11-13T17:13:09;121.65;;;63.83;;
46889;SDS011;32625;51.080;16.970;2022-11-13T17:15:55;117.43;;;62.80;;
46889;SDS011;32625;51.080;16.970;2022-11-13T17:18:45;124.40;;;62.67;;
46889;SDS011;32625;51.080;16.970;2022-11-13T17:21:37;116.10;;;64.35;;
46889;SDS011;32625;51.080;16.970;2022-11-13T17:24:28;109.80;;;61.50;;
46889;SDS011;32625;51.080;16.970;2022-11-13T17:27:14;117.55;;;63.38;;
46889;SDS011;32625;51.080;16.970;2022-11-13T17:30:00;120.03;;;63.63;;
46889;SDS011;32625;51.080;16.970;2022-11-13T17:32:45;123.32;;;67.22;;
46889;SDS011;32625;51.080;16.970;2022-11-13T17:35:31;140.00;;;70.53;;
46889;SDS011;32625;51.080;16.970;2022-11-13T17:38:17;135.20;;;70.95;;
46889;SDS011;32625;51.080;16.970;2022-11-13T17:41:04;129.13;;;67.00;;
46889;SDS011;32625;51.080;16.970;2022-11-13T17:43:52;129.57;;;68.53;;
46889;SDS011;32625;51.080;16.970;2022-11-13T17:46:45;155.48;;;85.38;;
46889;SDS011;32625;51.080;16.970;2022-11-13T17:49:32;174.98;;;88.10;;
46889;SDS011;32625;51.080;16.970;2022-11-13T17:52:18;167.60;;;83.85;;
46889;SDS011;32625;51.080;16.970;2022-11-13T17:55:04;166.65;;;86.85;;